Time;durP1;ratioP1;P1;durP2;ratioP2;P2;SDS_P1;SDS_P2;PMS_P1;PMS_P2;Temp;Humidity;BMP_temperature;BMP_pressure;BME280_temperature;BME280_humidity;BME280_pressure;Samples;Min_cycle;Max_cycle;Signal;HPM_P1;HPM_P2
2021/07/12 00:00:43;;;;;;;27.63;22.27;;;;;;;;;;5040869;28;20136;-43
2021/07/12 00:03:09;;;;;;;26.13;21.83;;;;;;;;;;5042275;28;20044;-43
2021/07/12 00:05:36;;;;;;;25.20;21.40;;;;;;;;;;5059941;28;20132;-43
2021/07/12 00:08:02;;;;;;;27.33;22.10;;;;;;;;;;5053637;28;20648;-43
2021/07/12 00:10:29;;;;;;;30.08;22.85;;;;;;;;;;5059644;28;20508;-43
2021/07/12 00:12:55;;;;;;;27.10;20.95;;;;;;;;;;5051204;28;20143;-43
2021/07/12 00:15:23;;;;;;;26.83;22.50;;;;;;;;;;5052211;28;20415;-43
2021/07/12 00:17:50;;;;;;;29.00;22.17;;;;;;;;;;5063009;28;20135;-43
2021/07/12 00:20:17;;;;;;;28.63;21.27;;;;;;;;;;5058023;28;20060;-43
2021/07/12 00:22:44;;;;;;;27.48;21.00;;;;;;;;;;5062771;28;20135;-43
2021/07/12 00:25:11;;;;;;;27.75;20.92;;;;;;;;;;5055649;28;20131;-43
2021/07/12 00:27:38;;;;;;;27.33;21.40;;;;;;;;;;5057072;28;20159;-43
2021/07/12 00:30:06;;;;;;;27.77;23.10;;;;;;;;;;5052167;28;20415;-43
2021/07/12 00:32:32;;;;;;;27.13;21.73;;;;;;;;;;5055583;28;20091;-43
2021/07/12 00:34:59;;;;;;;28.13;22.45;;;;;;;;;;5061958;28;20131;-43
2021/07/12 00:37:25;;;;;;;29.50;22.52;;;;;;;;;;5057907;28;20060;-43
2021/07/12 00:39:51;;;;;;;26.17;21.80;;;;;;;;;;5059112;28;20080;-43
2021/07/12 00:42:18;;;;;;;28.42;21.63;;;;;;;;;;5041663;28;20128;-42
2021/07/12 00:44:44;;;;;;;30.33;21.25;;;;;;;;;;5048609;28;20152;-43
2021/07/12 00:47:10;;;;;;;30.13;23.02;;;;;;;;;;5056493;28;20140;-43
2021/07/12 00:49:37;;;;;;;29.27;22.88;;;;;;;;;;5063866;28;20159;-43
2021/07/12 00:52:03;;;;;;;28.92;21.58;;;;;;;;;;5062885;28;20211;-43
2021/07/12 00:54:30;;;;;;;28.58;21.83;;;;;;;;;;5054258;28;20211;-43
2021/07/12 00:56:57;;;;;;;30.35;22.20;;;;;;;;;;5046360;28;20151;-43
2021/07/12 00:59:24;;;;;;;29.63;22.13;;;;;;;;;;5058878;28;20135;-43
2021/07/12 01:01:51;;;;;;;29.58;22.42;;;;;;;;;;5062251;28;20607;-43
2021/07/12 01:04:17;;;;;;;35.30;25.95;;;;;;;;;;5056747;28;20558;-43
2021/07/12 01:06:44;;;;;;;34.20;23.38;;;;;;;;;;5028920;28;20089;-43
2021/07/12 01:09:10;;;;;;;32.78;25.58;;;;;;;;;;5060831;28;20052;-43
2021/07/12 01:11:47;;;;;;;33.90;24.20;;;;;;;;;;5057255;28;20052;-43
2021/07/12 01:14:35;;;;;;;30.88;23.13;;;;;;;;;;5050173;28;20052;-43
2021/07/12 01:17:01;;;;;;;33.78;24.23;;;;;;;;;;5056998;28;20056;-43
2021/07/12 01:19:31;;;;;;;33.55;25.17;;;;;;;;;;5060886;28;20288;-43
2021/07/12 01:22:14;;;;;;;34.78;25.05;;;;;;;;;;5047738;28;20160;-43
2021/07/12 01:24:59;;;;;;;30.88;24.55;;;;;;;;;;5053451;28;20049;-43
2021/07/12 01:27:44;;;;;;;31.92;24.60;;;;;;;;;;5048705;28;20339;-43
2021/07/12 01:30:18;;;;;;;32.22;25.15;;;;;;;;;;5051794;28;20101;-43
2021/07/12 01:32:47;;;;;;;35.30;24.35;;;;;;;;;;5052719;28;20522;-43
2021/07/12 01:35:14;;;;;;;31.38;22.00;;;;;;;;;;5047583;28;20070;-43
2021/07/12 01:37:50;;;;;;;34.33;24.08;;;;;;;;;;5045381;28;20076;-43
2021/07/12 01:40:40;;;;;;;30.65;24.58;;;;;;;;;;5062199;28;20543;-43
2021/07/12 01:43:08;;;;;;;33.53;23.77;;;;;;;;;;5020127;28;20053;-43
2021/07/12 01:45:39;;;;;;;33.03;25.33;;;;;;;;;;5058486;28;20052;-43
2021/07/12 01:48:09;;;;;;;33.08;25.48;;;;;;;;;;5044215;28;20509;-43
2021/07/12 01:50:43;;;;;;;31.80;24.33;;;;;;;;;;5038474;28;20056;-43
2021/07/12 01:53:16;;;;;;;37.15;25.63;;;;;;;;;;5057243;28;20064;-42
2021/07/12 01:55:42;;;;;;;38.63;27.33;;;;;;;;;;5053577;28;20136;-43
2021/07/12 01:58:24;;;;;;;39.25;28.42;;;;;;;;;;5059950;28;20140;-43
2021/07/12 02:00:51;;;;;;;38.63;27.33;;;;;;;;;;5044496;28;20131;-43
2021/07/12 02:03:18;;;;;;;36.50;26.58;;;;;;;;;;5058346;28;20141;-43
2021/07/12 02:05:46;;;;;;;39.78;27.08;;;;;;;;;;5059541;28;20131;-43
2021/07/12 02:08:13;;;;;;;35.37;26.73;;;;;;;;;;5061873;28;20168;-43
2021/07/12 02:10:40;;;;;;;34.50;25.48;;;;;;;;;;5066328;28;20377;-43
2021/07/12 02:13:07;;;;;;;35.35;24.83;;;;;;;;;;5051001;28;20044;-44
2021/07/12 02:15:34;;;;;;;31.65;24.33;;;;;;;;;;5059101;28;20163;-43
2021/07/12 02:18:02;;;;;;;32.55;24.52;;;;;;;;;;5048931;28;20053;-42
2021/07/12 02:20:30;;;;;;;32.17;24.88;;;;;;;;;;5060296;28;20044;-43
2021/07/12 02:22:56;;;;;;;35.38;24.70;;;;;;;;;;5040402;28;20053;-43
2021/07/12 02:25:24;;;;;;;31.50;23.85;;;;;;;;;;5059764;28;20131;-43
2021/07/12 02:27:50;;;;;;;32.00;23.48;;;;;;;;;;5051862;28;20160;-43
2021/07/12 02:30:17;;;;;;;31.13;24.05;;;;;;;;;;5053024;28;20148;-43
2021/07/12 02:32:44;;;;;;;35.67;24.25;;;;;;;;;;5061667;28;20448;-43
2021/07/12 02:35:12;;;;;;;31.47;24.00;;;;;;;;;;5049824;28;20083;-43
2021/07/12 02:37:40;;;;;;;31.92;23.90;;;;;;;;;;5058928;28;20049;-43
2021/07/12 02:40:07;;;;;;;30.30;23.67;;;;;;;;;;5049257;28;20512;-44
2021/07/12 02:42:34;;;;;;;33.13;23.63;;;;;;;;;;5050207;28;20220;-43
2021/07/12 02:45:00;;;;;;;27.33;21.80;;;;;;;;;;5038300;28;20496;-43
2021/07/12 02:47:27;;;;;;;29.67;20.48;;;;;;;;;;5060639;28;20053;-43
2021/07/12 02:49:53;;;;;;;28.98;21.40;;;;;;;;;;5059295;28;20103;-43
2021/07/12 02:52:21;;;;;;;29.75;22.77;;;;;;;;;;5038675;28;20135;-43
2021/07/12 02:54:49;;;;;;;30.63;22.40;;;;;;;;;;5054982;28;20083;-43
2021/07/12 02:57:16;;;;;;;;;;;;;;;;;;5036263;28;20156;-43
2021/07/12 02:59:42;;;;;;;30.08;20.73;;;;;;;;;;5061211;28;20414;-43
2021/07/12 03:02:09;;;;;;;27.40;21.25;;;;;;;;;;5051123;28;20044;-43
2021/07/12 03:04:35;;;;;;;28.02;21.52;;;;;;;;;;5057627;28;20099;-43
2021/07/12 03:07:07;;;;;;;31.33;21.98;;;;;;;;;;5051840;28;20127;-43
2021/07/12 03:09:36;;;;;;;32.50;21.98;;;;;;;;;;5046593;28;20091;-43
2021/07/12 03:12:06;;;;;;;28.30;22.00;;;;;;;;;;5053788;28;20148;-43
2021/07/12 03:14:41;;;;;;;30.00;22.98;;;;;;;;;;5048818;28;20092;-43
2021/07/12 03:17:08;;;;;;;32.55;23.27;;;;;;;;;;5052044;28;20528;-42
2021/07/12 03:19:37;;;;;;;30.92;22.58;;;;;;;;;;5051731;28;20067;-43
2021/07/12 03:22:04;;;;;;;34.80;23.48;;;;;;;;;;5046239;28;20092;-43
2021/07/12 03:24:31;;;;;;;33.47;22.17;;;;;;;;;;5034807;28;20059;-43
2021/07/12 03:26:58;;;;;;;33.22;22.38;;;;;;;;;;5057877;28;20080;-42
2021/07/12 03:29:28;;;;;;;28.63;21.50;;;;;;;;;;5047260;28;20090;-42
2021/07/12 03:31:56;;;;;;;28.85;21.48;;;;;;;;;;5046776;28;20506;-42
2021/07/12 03:34:23;;;;;;;35.30;21.50;;;;;;;;;;5062347;28;20049;-43
2021/07/12 03:36:50;;;;;;;36.55;22.42;;;;;;;;;;5035692;28;20136;-42
2021/07/12 03:39:16;;;;;;;35.25;24.38;;;;;;;;;;5058423;28;20080;-43
2021/07/12 03:41:43;;;;;;;35.15;24.35;;;;;;;;;;5046309;28;20076;-43
2021/07/12 03:44:09;;;;;;;32.55;24.35;;;;;;;;;;5065534;28;20139;-43
2021/07/12 03:46:40;;;;;;;31.48;23.70;;;;;;;;;;5053194;28;20087;-43
2021/07/12 03:49:10;;;;;;;35.67;24.50;;;;;;;;;;5046847;28;20140;-42
2021/07/12 03:51:37;;;;;;;35.55;26.58;;;;;;;;;;5041374;28;20136;-42
2021/07/12 03:54:04;;;;;;;33.95;25.63;;;;;;;;;;5036532;28;20137;-42
2021/07/12 03:56:31;;;;;;;39.03;26.95;;;;;;;;;;5062046;28;20055;-41
2021/07/12 03:58:58;;;;;;;34.67;25.10;;;;;;;;;;5058304;28;20131;-42
2021/07/12 04:01:24;;;;;;;38.60;26.17;;;;;;;;;;5061462;28;20132;-42
2021/07/12 04:03:51;;;;;;;35.15;25.35;;;;;;;;;;5051199;28;20140;-42
2021/07/12 04:06:18;;;;;;;40.80;28.55;;;;;;;;;;5043232;28;20504;-42
2021/07/12 04:08:44;;;;;;;38.42;26.23;;;;;;;;;;5065461;28;20105;-41
2021/07/12 04:11:12;;;;;;;38.22;26.10;;;;;;;;;;5046268;28;20052;-42
2021/07/12 04:13:39;;;;;;;31.67;23.17;;;;;;;;;;5046174;28;20165;-43
2021/07/12 04:16:05;;;;;;;30.40;22.73;;;;;;;;;;5058136;28;20441;-42
2021/07/12 04:18:32;;;;;;;31.83;23.27;;;;;;;;;;5045821;28;20416;-42
2021/07/12 04:20:59;;;;;;;34.58;24.73;;;;;;;;;;5045555;28;20122;-43
2021/07/12 04:23:25;;;;;;;38.45;26.85;;;;;;;;;;5054376;28;20055;-42
2021/07/12 04:25:51;;;;;;;35.58;26.45;;;;;;;;;;5064285;28;20088;-42
2021/07/12 04:28:18;;;;;;;34.55;25.05;;;;;;;;;;5031860;28;20132;-44
2021/07/12 04:30:44;;;;;;;36.67;25.63;;;;;;;;;;5046479;28;20156;-42
2021/07/12 04:33:10;;;;;;;31.38;24.08;;;;;;;;;;5038646;28;20052;-43
2021/07/12 04:35:37;;;;;;;36.15;24.30;;;;;;;;;;5026681;28;20092;-43
2021/07/12 04:38:03;;;;;;;40.28;27.50;;;;;;;;;;5041260;28;20048;-43
2021/07/12 04:40:29;;;;;;;40.53;27.25;;;;;;;;;;5048715;28;20076;-44
2021/07/12 04:42:56;;;;;;;38.55;27.38;;;;;;;;;;5038064;28;20085;-43
2021/07/12 04:45:26;;;;;;;42.75;27.83;;;;;;;;;;5045331;28;20151;-43
2021/07/12 04:47:52;;;;;;;32.80;23.48;;;;;;;;;;5053421;28;20133;-44
2021/07/12 04:50:19;;;;;;;35.38;23.75;;;;;;;;;;5047154;28;20050;-44
2021/07/12 04:52:46;;;;;;;41.45;25.88;;;;;;;;;;5052161;28;20126;-43
2021/07/12 04:55:12;;;;;;;43.65;27.25;;;;;;;;;;5046431;28;20137;-43
2021/07/12 04:57:39;;;;;;;36.97;27.13;;;;;;;;;;5055246;28;20124;-43
2021/07/12 05:00:07;;;;;;;37.83;28.75;;;;;;;;;;5037496;28;20080;-44
2021/07/12 05:02:33;;;;;;;46.22;31.27;;;;;;;;;;5062733;28;20044;-43
2021/07/12 05:05:00;;;;;;;42.88;30.77;;;;;;;;;;5055258;28;20083;-43
2021/07/12 05:07:26;;;;;;;45.78;32.08;;;;;;;;;;5047565;28;20132;-44
2021/07/12 05:09:53;;;;;;;49.30;33.92;;;;;;;;;;5063309;28;20461;-44
2021/07/12 05:12:19;;;;;;;54.30;34.35;;;;;;;;;;5049115;28;20131;-43
2021/07/12 05:14:46;;;;;;;52.42;35.33;;;;;;;;;;5042155;28;20495;-43
2021/07/12 05:17:12;;;;;;;53.63;36.45;;;;;;;;;;5050057;28;20128;-43
2021/07/12 05:19:39;;;;;;;61.40;36.28;;;;;;;;;;5060860;28;20171;-43
2021/07/12 05:22:06;;;;;;;55.40;36.40;;;;;;;;;;5040518;28;20127;-43
2021/07/12 05:24:32;;;;;;;57.47;36.65;;;;;;;;;;5066607;28;20615;-43
2021/07/12 05:26:59;;;;;;;58.88;38.25;;;;;;;;;;5055609;28;20542;-43
2021/07/12 05:29:25;;;;;;;62.70;39.63;;;;;;;;;;5056042;28;20090;-44
2021/07/12 05:31:51;;;;;;;65.72;40.85;;;;;;;;;;5063361;28;20157;-43
2021/07/12 05:34:18;;;;;;;64.35;40.30;;;;;;;;;;5059086;28;20128;-43
2021/07/12 05:36:45;;;;;;;67.35;40.38;;;;;;;;;;5062675;28;20291;-44
2021/07/12 05:39:13;;;;;;;61.53;40.72;;;;;;;;;;5046512;28;20151;-44
2021/07/12 05:41:39;;;;;;;61.72;39.30;;;;;;;;;;5048151;28;20140;-43
2021/07/12 05:44:05;;;;;;;73.50;42.72;;;;;;;;;;5048028;28;20092;-44
2021/07/12 05:46:32;;;;;;;69.22;40.45;;;;;;;;;;5058497;28;20044;-44
2021/07/12 05:49:03;;;;;;;67.05;42.40;;;;;;;;;;5065730;28;20055;-43
2021/07/12 05:51:29;;;;;;;70.65;41.53;;;;;;;;;;5053194;28;20846;-43
2021/07/12 05:53:55;;;;;;;70.57;41.42;;;;;;;;;;5064912;28;20401;-45
2021/07/12 05:56:22;;;;;;;77.88;47.08;;;;;;;;;;5058397;28;20384;-43
2021/07/12 05:58:48;;;;;;;72.43;45.42;;;;;;;;;;5058388;28;20136;-43
2021/07/12 06:01:16;;;;;;;65.30;42.45;;;;;;;;;;5055717;28;20087;-43
2021/07/12 06:03:43;;;;;;;71.15;42.95;;;;;;;;;;5057057;28;20122;-43
2021/07/12 06:06:09;;;;;;;72.80;44.42;;;;;;;;;;5061857;28;20156;-43
2021/07/12 06:08:35;;;;;;;68.53;44.70;;;;;;;;;;5055500;28;20076;-43
2021/07/12 06:11:02;;;;;;;74.03;47.58;;;;;;;;;;5065413;28;20429;-43
2021/07/12 06:13:28;;;;;;;67.07;44.60;;;;;;;;;;5058809;28;20563;-43
2021/07/12 06:15:54;;;;;;;64.78;41.95;;;;;;;;;;5049611;28;20089;-44
2021/07/12 06:18:21;;;;;;;69.10;44.40;;;;;;;;;;5051136;28;20086;-45
2021/07/12 06:20:47;;;;;;;68.03;45.80;;;;;;;;;;5058807;28;20056;-44
2021/07/12 06:23:14;;;;;;;64.30;43.70;;;;;;;;;;5051290;28;20044;-44
2021/07/12 06:25:42;;;;;;;64.85;41.63;;;;;;;;;;5064987;28;20129;-44
2021/07/12 06:28:09;;;;;;;66.10;43.38;;;;;;;;;;5045691;28;20135;-44
2021/07/12 06:30:35;;;;;;;67.65;43.28;;;;;;;;;;5049667;28;20076;-44
2021/07/12 06:33:03;;;;;;;61.53;40.92;;;;;;;;;;5062138;28;20114;-43
2021/07/12 06:35:29;;;;;;;52.50;38.15;;;;;;;;;;5060498;28;20564;-44
2021/07/12 06:37:56;;;;;;;61.38;42.63;;;;;;;;;;5067633;28;20052;-44
2021/07/12 06:40:22;;;;;;;57.13;39.83;;;;;;;;;;5056725;28;20083;-43
2021/07/12 06:42:49;;;;;;;56.92;40.40;;;;;;;;;;5065992;28;20438;-44
2021/07/12 06:45:15;;;;;;;57.88;41.50;;;;;;;;;;5040356;28;20135;-45
2021/07/12 06:47:41;;;;;;;54.50;39.17;;;;;;;;;;5049491;28;20128;-44
2021/07/12 06:50:08;;;;;;;59.53;41.33;;;;;;;;;;5054638;28;20100;-44
2021/07/12 06:52:38;;;;;;;51.33;35.88;;;;;;;;;;5055746;28;20045;-44
2021/07/12 06:55:04;;;;;;;44.85;32.70;;;;;;;;;;5067030;28;20084;-44
2021/07/12 06:57:31;;;;;;;48.88;33.67;;;;;;;;;;5058486;28;20541;-44
2021/07/12 06:59:57;;;;;;;50.20;37.45;;;;;;;;;;5041728;28;20098;-45
2021/07/12 07:02:23;;;;;;;52.65;37.95;;;;;;;;;;5058478;28;20120;-43
2021/07/12 07:04:53;;;;;;;47.10;33.45;;;;;;;;;;5059938;28;20049;-44
2021/07/12 07:07:19;;;;;;;47.17;34.22;;;;;;;;;;5057751;28;20132;-44
2021/07/12 07:09:45;;;;;;;52.13;37.47;;;;;;;;;;5065771;28;20136;-43
2021/07/12 07:12:12;;;;;;;54.03;37.45;;;;;;;;;;5054905;28;20132;-42
2021/07/12 07:14:38;;;;;;;51.53;38.50;;;;;;;;;;5044653;28;20048;-43
2021/07/12 07:17:05;;;;;;;57.22;40.85;;;;;;;;;;5052582;28;20096;-42
2021/07/12 07:19:31;;;;;;;51.28;38.08;;;;;;;;;;5048335;28;20076;-43
2021/07/12 07:21:58;;;;;;;53.78;39.83;;;;;;;;;;5055321;28;20123;-42
2021/07/12 07:24:24;;;;;;;55.22;38.97;;;;;;;;;;5056464;28;20049;-43
2021/07/12 07:26:51;;;;;;;32.35;23.08;;;;;;;;;;5054829;28;20139;-44
2021/07/12 07:29:20;;;;;;;49.35;36.95;;;;;;;;;;5062377;28;20835;-43
2021/07/12 07:31:47;;;;;;;44.35;33.08;;;;;;;;;;5044911;28;20484;-42
2021/07/12 07:34:34;;;;;;;45.08;32.75;;;;;;;;;;5053281;28;20063;-42
2021/07/12 07:37:00;;;;;;;42.97;31.95;;;;;;;;;;5059329;28;20121;-42
2021/07/12 07:39:27;;;;;;;38.42;28.90;;;;;;;;;;5059780;28;20139;-42
2021/07/12 07:42:13;;;;;;;32.78;25.15;;;;;;;;;;5054365;28;20056;-43
2021/07/12 07:44:39;;;;;;;31.88;24.73;;;;;;;;;;5052909;28;20140;-42
2021/07/12 07:47:06;;;;;;;40.72;30.25;;;;;;;;;;5055070;28;20135;-43
2021/07/12 07:49:33;;;;;;;35.22;26.17;;;;;;;;;;5064561;28;20074;-45
2021/07/12 07:51:59;;;;;;;35.72;27.75;;;;;;;;;;5060734;28;21030;-44
2021/07/12 07:54:25;;;;;;;34.53;25.13;;;;;;;;;;5061260;28;20088;-42
2021/07/12 07:56:52;;;;;;;31.60;24.98;;;;;;;;;;5060446;28;20052;-42
2021/07/12 07:59:18;;;;;;;45.00;29.90;;;;;;;;;;5046332;28;20136;-42
2021/07/12 08:01:45;;;;;;;40.00;30.55;;;;;;;;;;5062506;28;20073;-43
2021/07/12 08:04:11;;;;;;;38.75;27.35;;;;;;;;;;5060287;28;20075;-43
2021/07/12 08:06:38;;;;;;;35.65;22.50;;;;;;;;;;5048182;28;20076;-43
2021/07/12 08:09:04;;;;;;;38.72;26.45;;;;;;;;;;5047410;28;20063;-43
2021/07/12 08:11:31;;;;;;;39.60;25.45;;;;;;;;;;5064665;28;20140;-43
2021/07/12 08:13:57;;;;;;;36.47;26.13;;;;;;;;;;5045095;28;20139;-43
2021/07/12 08:16:24;;;;;;;39.40;25.52;;;;;;;;;;5057569;28;20080;-42
2021/07/12 08:18:50;;;;;;;24.92;18.17;;;;;;;;;;5065735;28;20056;-43
2021/07/12 08:21:17;;;;;;;38.78;25.30;;;;;;;;;;5046793;28;20122;-42
2021/07/12 08:23:43;;;;;;;25.30;16.02;;;;;;;;;;5055895;28;20135;-43
2021/07/12 08:26:11;;;;;;;35.42;20.85;;;;;;;;;;5058869;28;20484;-44
2021/07/12 08:28:38;;;;;;;23.58;16.27;;;;;;;;;;5066263;28;20700;-43
2021/07/12 08:31:05;;;;;;;31.07;16.87;;;;;;;;;;5044259;28;20123;-44
2021/07/12 08:33:32;;;;;;;17.05;11.27;;;;;;;;;;5064210;28;20106;-43
2021/07/12 08:35:58;;;;;;;20.15;13.50;;;;;;;;;;5051022;28;20091;-44
2021/07/12 08:38:25;;;;;;;20.88;14.25;;;;;;;;;;5055242;28;20139;-43
2021/07/12 08:40:52;;;;;;;20.67;12.88;;;;;;;;;;5064768;28;20148;-43
2021/07/12 08:43:19;;;;;;;18.13;10.88;;;;;;;;;;5058527;28;20167;-44
2021/07/12 08:45:45;;;;;;;21.40;12.43;;;;;;;;;;5066291;28;20044;-43
2021/07/12 08:48:11;;;;;;;22.42;13.88;;;;;;;;;;5048678;28;20448;-44
2021/07/12 08:50:38;;;;;;;17.95;12.20;;;;;;;;;;5042410;28;20127;-44
2021/07/12 08:53:04;;;;;;;20.02;12.48;;;;;;;;;;5054179;28;20060;-44
2021/07/12 08:55:31;;;;;;;20.92;14.10;;;;;;;;;;5065278;28;20074;-44
2021/07/12 08:58:09;;;;;;;19.42;11.90;;;;;;;;;;5065102;28;20148;-44
2021/07/12 09:00:36;;;;;;;20.50;13.15;;;;;;;;;;5051695;28;20158;-44
2021/07/12 09:03:18;;;;;;;19.52;12.68;;;;;;;;;;5050949;28;20135;-44
2021/07/12 09:05:59;;;;;;;17.52;10.00;;;;;;;;;;5047492;28;20586;-44
2021/07/12 09:08:33;;;;;;;16.48;11.65;;;;;;;;;;5058697;28;20055;-44
2021/07/12 09:11:07;;;;;;;14.65;11.15;;;;;;;;;;5059707;28;20131;-44
2021/07/12 09:13:42;;;;;;;17.20;12.07;;;;;;;;;;5061839;28;20079;-44
2021/07/12 09:16:27;;;;;;;18.88;12.80;;;;;;;;;;5054974;28;20191;-45
2021/07/12 09:19:03;;;;;;;14.80;11.35;;;;;;;;;;5051219;28;20156;-44
2021/07/12 09:21:37;;;;;;;18.75;13.70;;;;;;;;;;5050788;28;20794;-44
2021/07/12 09:24:22;;;;;;;13.43;9.02;;;;;;;;;;5049300;28;20045;-44
2021/07/12 09:26:57;;;;;;;11.45;10.07;;;;;;;;;;5055163;28;20083;-45
2021/07/12 09:29:25;;;;;;;14.77;10.48;;;;;;;;;;5062271;28;20084;-44
2021/07/12 09:31:52;;;;;;;14.18;10.20;;;;;;;;;;5043312;28;20550;-44
2021/07/12 09:34:20;;;;;;;14.18;11.65;;;;;;;;;;5060657;28;20061;-44
2021/07/12 09:36:46;;;;;;;15.43;11.18;;;;;;;;;;5055937;28;20132;-44
2021/07/12 09:39:24;;;;;;;13.25;9.85;;;;;;;;;;5048120;28;20453;-44
2021/07/12 09:41:54;;;;;;;15.60;11.25;;;;;;;;;;5047845;28;20123;-44
2021/07/12 09:44:21;;;;;;;11.88;9.52;;;;;;;;;;5037304;28;20107;-44
2021/07/12 09:46:48;;;;;;;12.07;9.23;;;;;;;;;;5049360;28;20124;-45
2021/07/12 09:49:17;;;;;;;10.82;8.68;;;;;;;;;;5056087;28;20107;-45
2021/07/12 09:51:45;;;;;;;12.68;9.40;;;;;;;;;;5054806;28;20063;-44
2021/07/12 09:54:18;;;;;;;15.00;10.77;;;;;;;;;;5055697;28;20143;-44
2021/07/12 09:56:45;;;;;;;16.60;12.45;;;;;;;;;;5057255;28;20140;-44
2021/07/12 09:59:15;;;;;;;14.25;10.73;;;;;;;;;;5051520;28;20155;-45
2021/07/12 10:01:45;;;;;;;13.95;10.63;;;;;;;;;;5050679;28;20128;-44
2021/07/12 10:04:12;;;;;;;16.40;12.30;;;;;;;;;;5047494;28;20373;-44
2021/07/12 10:06:39;;;;;;;17.60;11.63;;;;;;;;;;5043781;28;20152;-44
2021/07/12 10:09:06;;;;;;;13.45;10.40;;;;;;;;;;5060728;28;20051;-46
2021/07/12 10:11:32;;;;;;;12.68;10.98;;;;;;;;;;5037054;28;20135;-45
2021/07/12 10:13:59;;;;;;;13.45;11.60;;;;;;;;;;5019759;28;20056;-46
2021/07/12 10:16:28;;;;;;;16.00;12.68;;;;;;;;;;5021706;28;20048;-45
2021/07/12 10:18:54;;;;;;;14.43;12.40;;;;;;;;;;5019173;28;20048;-44
2021/07/12 10:21:21;;;;;;;17.55;13.98;;;;;;;;;;5019574;28;20149;-44
2021/07/12 10:23:54;;;;;;;12.68;9.75;;;;;;;;;;5017664;28;20053;-44
2021/07/12 10:26:39;;;;;;;12.30;9.45;;;;;;;;;;5022829;28;20044;-45
2021/07/12 10:29:10;;;;;;;12.90;10.43;;;;;;;;;;4993648;28;20143;-45
2021/07/12 10:31:52;;;;;;;10.98;8.95;;;;;;;;;;5022573;28;20171;-44
2021/07/12 10:34:25;;;;;;;11.65;10.02;;;;;;;;;;5017737;28;20136;-45
2021/07/12 10:36:59;;;;;;;13.65;9.38;;;;;;;;;;5035144;28;20553;-45
2021/07/12 10:39:52;;;;;;;12.15;7.63;;;;;;;;;;5037402;28;20197;-45
2021/07/12 10:42:50;;;;;;;11.65;9.02;;;;;;;;;;5019851;28;20048;-45
2021/07/12 10:45:17;;;;;;;13.60;10.43;;;;;;;;;;5031526;28;20147;-44
2021/07/12 10:47:50;;;;;;;13.60;11.05;;;;;;;;;;5052337;28;20135;-45
2021/07/12 10:50:36;;;;;;;15.27;11.05;;;;;;;;;;5044339;28;20973;-45
2021/07/12 10:53:23;;;;;;;15.77;10.32;;;;;;;;;;5056889;28;20059;-45
2021/07/12 10:55:58;;;;;;;13.40;9.13;;;;;;;;;;5006981;28;1226988;-45
2021/07/12 10:58:28;;;;;;;13.07;9.90;;;;;;;;;;5060106;28;20132;-46
2021/07/12 11:00:55;;;;;;;11.40;9.27;;;;;;;;;;5057906;28;20935;-44
2021/07/12 11:03:37;;;;;;;11.20;9.88;;;;;;;;;;5057687;28;20143;-44
2021/07/12 11:06:04;;;;;;;10.32;7.68;;;;;;;;;;5054195;28;20135;-44
2021/07/12 11:08:46;;;;;;;14.00;9.25;;;;;;;;;;5050068;28;20076;-44
2021/07/12 11:11:33;;;;;;;12.32;9.80;;;;;;;;;;5058301;28;20819;-44
2021/07/12 11:14:08;;;;;;;12.93;8.47;;;;;;;;;;5049545;28;20059;-45
2021/07/12 11:16:38;;;;;;;11.10;7.53;;;;;;;;;;5061237;28;20139;-45
2021/07/12 11:19:24;;;;;;;8.98;8.07;;;;;;;;;;5039896;28;20052;-44
2021/07/12 11:21:52;;;;;;;11.43;8.85;;;;;;;;;;5044264;28;20049;-45
2021/07/12 11:24:20;;;;;;;11.60;7.53;;;;;;;;;;5050766;28;20556;-44
2021/07/12 11:26:47;;;;;;;11.82;8.73;;;;;;;;;;5062650;28;20090;-45
2021/07/12 11:29:21;;;;;;;12.43;10.20;;;;;;;;;;5034265;28;20135;-44
2021/07/12 11:31:49;;;;;;;12.15;10.05;;;;;;;;;;5055607;28;20045;-44
2021/07/12 11:34:19;;;;;;;17.52;10.85;;;;;;;;;;5054186;28;21092;-45
2021/07/12 11:36:53;;;;;;;12.27;8.85;;;;;;;;;;5051763;28;20067;-44
2021/07/12 11:39:39;;;;;;;12.55;9.40;;;;;;;;;;5054968;28;20800;-45
2021/07/12 11:42:16;;;;;;;9.93;8.93;;;;;;;;;;5064622;28;20170;-45
2021/07/12 11:44:53;;;;;;;11.25;8.38;;;;;;;;;;5060629;28;20132;-44
2021/07/12 11:47:22;;;;;;;11.38;9.90;;;;;;;;;;5051414;28;20055;-44
2021/07/12 11:49:49;;;;;;;10.18;9.07;;;;;;;;;;5047623;28;20136;-44
2021/07/12 11:52:16;;;;;;;13.00;9.55;;;;;;;;;;5041619;28;20148;-45
2021/07/12 11:54:42;;;;;;;11.87;10.30;;;;;;;;;;5046471;28;20088;-44
2021/07/12 11:57:14;;;;;;;11.13;9.88;;;;;;;;;;5040469;28;21538;-44
2021/07/12 11:59:42;;;;;;;14.38;9.90;;;;;;;;;;5059871;28;20543;-45
2021/07/12 12:02:08;;;;;;;;;;;;;;;;;;5050365;28;20079;-45
2021/07/12 12:04:48;;;;;;;10.67;9.50;;;;;;;;;;5049432;28;19931;-44
2021/07/12 12:07:34;;;;;;;12.82;11.02;;;;;;;;;;5049436;28;20143;-44
2021/07/12 12:10:04;;;;;;;14.40;11.68;;;;;;;;;;5055906;28;20049;-45
2021/07/12 12:12:32;;;;;;;11.48;10.13;;;;;;;;;;5052646;28;20136;-44
2021/07/12 12:14:59;;;;;;;12.27;10.75;;;;;;;;;;5039870;28;20148;-44
2021/07/12 12:17:26;;;;;;;12.75;11.40;;;;;;;;;;5056661;28;20164;-44
2021/07/12 12:20:07;;;;;;;13.10;11.27;;;;;;;;;;5041883;28;20106;-44
2021/07/12 12:22:34;;;;;;;14.30;10.50;;;;;;;;;;5049176;28;20076;-44
2021/07/12 12:25:03;;;;;;;15.60;11.47;;;;;;;;;;5058543;28;20044;-44
2021/07/12 12:27:29;;;;;;;13.57;10.73;;;;;;;;;;5050738;28;20305;-47
2021/07/12 12:29:56;;;;;;;12.93;10.45;;;;;;;;;;5057289;28;20087;-46
2021/07/12 12:32:34;;;;;;;11.20;9.87;;;;;;;;;;5054295;28;20083;-45
2021/07/12 12:35:02;;;;;;;13.63;10.85;;;;;;;;;;5062480;28;20052;-44
2021/07/12 12:37:39;;;;;;;12.63;10.98;;;;;;;;;;5049902;28;20087;-44
2021/07/12 12:40:08;;;;;;;12.02;10.63;;;;;;;;;;5063839;28;20056;-45
2021/07/12 12:42:35;;;;;;;11.43;9.82;;;;;;;;;;5042886;28;20140;-45
2021/07/12 12:45:01;;;;;;;14.90;10.07;;;;;;;;;;5053555;28;20045;-45
2021/07/12 12:47:28;;;;;;;10.07;8.48;;;;;;;;;;5046852;28;20850;-46
2021/07/12 12:49:55;;;;;;;11.43;8.30;;;;;;;;;;5048726;28;20080;-44
2021/07/12 12:52:21;;;;;;;8.07;7.25;;;;;;;;;;5040485;28;20560;-44
2021/07/12 12:54:49;;;;;;;10.35;8.13;;;;;;;;;;5060268;28;20131;-45
2021/07/12 12:57:25;;;;;;;10.02;8.02;;;;;;;;;;5050989;28;20056;-44
2021/07/12 13:00:04;;;;;;;9.90;7.70;;;;;;;;;;5055660;28;20056;-44
2021/07/12 13:02:36;;;;;;;11.02;8.80;;;;;;;;;;5046070;28;20484;-44
2021/07/12 13:05:06;;;;;;;10.93;9.20;;;;;;;;;;5049291;28;20080;-44
2021/07/12 13:07:41;;;;;;;11.48;9.10;;;;;;;;;;5062740;28;20147;-44
2021/07/12 13:10:12;;;;;;;11.18;9.35;;;;;;;;;;5047298;28;20080;-44
2021/07/12 13:12:38;;;;;;;16.13;8.93;;;;;;;;;;5030780;28;20044;-44
2021/07/12 13:15:07;;;;;;;10.40;7.43;;;;;;;;;;5036715;28;20086;-44
2021/07/12 13:17:34;;;;;;;11.75;7.50;;;;;;;;;;5043850;28;20156;-44
2021/07/12 13:20:06;;;;;;;11.68;7.68;;;;;;;;;;5039031;28;20608;-44
2021/07/12 13:22:34;;;;;;;7.78;6.70;;;;;;;;;;5046810;28;20095;-44
2021/07/12 13:25:05;;;;;;;9.43;7.30;;;;;;;;;;5049713;28;20056;-44
2021/07/12 13:27:33;;;;;;;7.53;6.07;;;;;;;;;;5054634;28;20429;-45
2021/07/12 13:30:01;;;;;;;10.43;8.07;;;;;;;;;;5048406;28;20118;-44
2021/07/12 13:32:28;;;;;;;8.98;7.90;;;;;;;;;;5052787;28;20048;-44
2021/07/12 13:35:03;;;;;;;9.37;7.83;;;;;;;;;;5062762;28;20056;-44
2021/07/12 13:37:29;;;;;;;7.88;7.07;;;;;;;;;;5049692;28;20382;-44
2021/07/12 13:39:56;;;;;;;8.40;7.20;;;;;;;;;;5057654;28;20095;-44
2021/07/12 13:42:23;;;;;;;11.63;7.28;;;;;;;;;;5054322;28;20128;-45
2021/07/12 13:44:50;;;;;;;16.05;9.00;;;;;;;;;;5050868;28;20487;-44
2021/07/12 13:47:16;;;;;;;12.65;7.88;;;;;;;;;;5056727;28;20091;-44
2021/07/12 13:49:43;;;;;;;10.52;7.43;;;;;;;;;;5050597;28;20132;-44
2021/07/12 13:52:09;;;;;;;7.20;6.32;;;;;;;;;;5047675;28;20056;-44
2021/07/12 13:54:36;;;;;;;9.10;7.00;;;;;;;;;;5045956;28;20044;-44
2021/07/12 13:57:03;;;;;;;8.75;7.35;;;;;;;;;;5063639;28;20131;-44
2021/07/12 13:59:29;;;;;;;10.43;7.85;;;;;;;;;;5055992;28;20134;-45
2021/07/12 14:01:56;;;;;;;13.50;8.27;;;;;;;;;;5052655;28;20076;-44
2021/07/12 14:04:23;;;;;;;13.57;8.20;;;;;;;;;;5040650;28;20149;-44
2021/07/12 14:06:49;;;;;;;10.60;8.38;;;;;;;;;;5049212;28;20152;-44
2021/07/12 14:09:16;;;;;;;10.52;8.05;;;;;;;;;;5045979;28;20139;-44
2021/07/12 14:11:42;;;;;;;13.35;8.63;;;;;;;;;;5053827;28;20621;-44
2021/07/12 14:14:08;;;;;;;10.23;9.13;;;;;;;;;;5053057;28;20159;-44
2021/07/12 14:16:35;;;;;;;10.40;9.23;;;;;;;;;;5054150;28;20080;-44
2021/07/12 14:19:01;;;;;;;10.43;9.32;;;;;;;;;;5058479;28;20052;-44
2021/07/12 14:21:28;;;;;;;14.43;10.20;;;;;;;;;;5053103;28;20059;-44
2021/07/12 14:23:55;;;;;;;13.65;11.30;;;;;;;;;;5065398;28;20123;-44
2021/07/12 14:26:21;;;;;;;13.20;11.18;;;;;;;;;;5047228;28;20462;-44
2021/07/12 14:28:48;;;;;;;12.98;11.68;;;;;;;;;;5067465;28;20130;-45
2021/07/12 14:31:15;;;;;;;13.25;11.52;;;;;;;;;;5044706;28;20041;-44